Startpagina
METAR-TAF:

METAR-TAF

Vliegvelden :

La Paz, Bolivia

Aeropuerto Internacional El Alto

breedte: 16-31S, lengte: 068-11W, hoogte: 4058 m

Actueel weer

Dit bericht is 42 minuten geleden gemaakt, om 00:00 UTC
Wind 2 kt uit variabele richting
Temperatuur 7°C
Vochtigheid 36%
Druk 1039 hPa
Zicht 10 km of meer

METAR: SLLP 260000Z VRB02KT 9999 NSC 07/M07 Q1039

Tijdstip: 20:42 (00:42 UTC)

Verwachting

Dit bericht is 2 uur en het 42 minuten geleden gemaakt, om 22:00 UTC
Verwachting geldig van 26 om 00 UTC tot 26 om 24 UTC
Wind 6 kt uit het oostnoordoosten
Zicht 10 km of meer
Kans 40% :
Tijdelijke
van 26 om 06 UTC tot 26 om 10 UTC
Zicht: 4000 m
Weinig wolken op 200 ft
mist in de omgeving
Wijzigt naar
van 26 om 14 UTC tot 26 om 16 UTC
Wind 8 kt uit het westzuidwesten

TAF: SLLP 252200Z 2600/2624 07006KT 9999 NSC TX17/2620Z TNM06/2610Z PROB40 TEMPO 2606/2610 4000E VCFG FEW002 BECMG 2614/2616 25008KT

Waarnemingen en weersverwachtingen van meer dan 4000 vliegvelden (METAR en TAF).

De beschikbare stations zijn de gele en rode punten op de kaart.

Ga met uw muis naar het station om de naam te zien.

Klik dan om waarnemingen en weersverwachtingen te zien.

kaart wijzigen: klik op de groene knoppen met een zwart kruis om in te zoomen, op de groene knop met een streepje om uit te zoomen of op de groene pijlen voor aangrenzende kaarten.


METAR-TAF: